Morrisvale, West Virginia
Current Conditions -  °F | °C
As of 11:54 PM on Monday 20 Oct 2014 (Local Time) from KCRW Reporting Station
Overcast Overcast  
Wind Chill: 50°   Ceiling: 7000
Heat Index: 50°   Visibility: 7mi
Dew Point: 49°   Wind: 0mph
Humidity: 96%   Direction: NA
Pressure: 29.93"   Gusts: NA
Location:  38.0907°N, 81.9877°W
Report Text: KCRW 210354Z 00000KT 7SM SCT040 OVC070 10/09 A2993 RMK AO2 SLP135 T01000094
Loading
Personal Weather Stations






























Interactive Weather Map New forecast layout! Learn more

10-Day Weather Forecast

Advertisements
Track Severe Weather on mobile